sensor_id;sensor_type;location;lat;lon;timestamp;temperature;humidity
18085;DHT22;9169;44.492;11.372;2022-07-29T00:00:26;30.00;60.30
18085;DHT22;9169;44.492;11.372;2022-07-29T00:02:53;30.00;60.50
18085;DHT22;9169;44.492;11.372;2022-07-29T00:05:21;30.00;60.00
18085;DHT22;9169;44.492;11.372;2022-07-29T00:07:48;30.00;59.70
18085;DHT22;9169;44.492;11.372;2022-07-29T00:10:14;30.10;59.50
18085;DHT22;9169;44.492;11.372;2022-07-29T00:12:41;30.10;59.50
18085;DHT22;9169;44.492;11.372;2022-07-29T00:15:08;30.10;59.70
18085;DHT22;9169;44.492;11.372;2022-07-29T00:17:35;30.00;59.80
18085;DHT22;9169;44.492;11.372;2022-07-29T00:20:02;29.90;60.00
18085;DHT22;9169;44.492;11.372;2022-07-29T00:22:30;29.90;59.70
18085;DHT22;9169;44.492;11.372;2022-07-29T00:24:57;29.80;59.90
18085;DHT22;9169;44.492;11.372;2022-07-29T00:27:24;29.90;59.90
18085;DHT22;9169;44.492;11.372;2022-07-29T00:29:50;29.80;60.10
18085;DHT22;9169;44.492;11.372;2022-07-29T00:32:17;29.80;59.30
18085;DHT22;9169;44.492;11.372;2022-07-29T00:34:44;29.90;59.30
18085;DHT22;9169;44.492;11.372;2022-07-29T00:37:28;29.90;59.30
18085;DHT22;9169;44.492;11.372;2022-07-29T00:39:56;29.90;59.20
18085;DHT22;9169;44.492;11.372;2022-07-29T00:42:23;30.00;59.10
18085;DHT22;9169;44.492;11.372;2022-07-29T00:44:50;30.00;59.00
18085;DHT22;9169;44.492;11.372;2022-07-29T00:47:16;30.00;59.20
18085;DHT22;9169;44.492;11.372;2022-07-29T00:49:43;30.10;59.00
18085;DHT22;9169;44.492;11.372;2022-07-29T00:52:10;30.10;59.10
18085;DHT22;9169;44.492;11.372;2022-07-29T00:54:38;30.10;59.80
18085;DHT22;9169;44.492;11.372;2022-07-29T00:57:07;30.00;60.00
18085;DHT22;9169;44.492;11.372;2022-07-29T00:59:34;30.00;59.70
18085;DHT22;9169;44.492;11.372;2022-07-29T01:02:01;30.00;60.00
18085;DHT22;9169;44.492;11.372;2022-07-29T01:04:27;29.90;59.80
18085;DHT22;9169;44.492;11.372;2022-07-29T01:06:55;29.90;59.70
18085;DHT22;9169;44.492;11.372;2022-07-29T01:09:22;29.90;59.90
18085;DHT22;9169;44.492;11.372;2022-07-29T01:11:49;29.80;59.90
18085;DHT22;9169;44.492;11.372;2022-07-29T01:14:17;29.80;59.90
18085;DHT22;9169;44.492;11.372;2022-07-29T01:16:45;29.70;59.60
18085;DHT22;9169;44.492;11.372;2022-07-29T01:19:20;29.70;60.00
18085;DHT22;9169;44.492;11.372;2022-07-29T01:21:50;29.60;60.10
18085;DHT22;9169;44.492;11.372;2022-07-29T01:27:04;29.50;60.90
18085;DHT22;9169;44.492;11.372;2022-07-29T01:29:36;29.40;61.40
18085;DHT22;9169;44.492;11.372;2022-07-29T01:32:05;29.30;60.80
18085;DHT22;9169;44.492;11.372;2022-07-29T01:34:35;29.30;60.60
18085;DHT22;9169;44.492;11.372;2022-07-29T01:37:07;29.30;60.40
18085;DHT22;9169;44.492;11.372;2022-07-29T01:39:37;29.30;61.80
18085;DHT22;9169;44.492;11.372;2022-07-29T01:42:06;29.20;60.50
18085;DHT22;9169;44.492;11.372;2022-07-29T01:44:39;29.20;60.60
18085;DHT22;9169;44.492;11.372;2022-07-29T01:47:10;29.20;61.30
18085;DHT22;9169;44.492;11.372;2022-07-29T01:49:39;29.20;61.30
18085;DHT22;9169;44.492;11.372;2022-07-29T01:52:08;29.10;61.10
18085;DHT22;9169;44.492;11.372;2022-07-29T01:54:40;29.10;61.80
18085;DHT22;9169;44.492;11.372;2022-07-29T01:57:09;29.00;61.40
18085;DHT22;9169;44.492;11.372;2022-07-29T01:59:36;29.00;61.40
18085;DHT22;9169;44.492;11.372;2022-07-29T02:02:05;29.00;60.80
18085;DHT22;9169;44.492;11.372;2022-07-29T02:04:34;29.00;60.50
18085;DHT22;9169;44.492;11.372;2022-07-29T02:07:02;29.00;60.50
18085;DHT22;9169;44.492;11.372;2022-07-29T02:09:30;29.10;61.20
18085;DHT22;9169;44.492;11.372;2022-07-29T02:11:58;29.00;61.50
18085;DHT22;9169;44.492;11.372;2022-07-29T02:14:26;28.90;61.20
18085;DHT22;9169;44.492;11.372;2022-07-29T02:16:54;28.90;61.30
18085;DHT22;9169;44.492;11.372;2022-07-29T02:19:23;28.70;62.00
18085;DHT22;9169;44.492;11.372;2022-07-29T02:21:51;28.70;61.80
18085;DHT22;9169;44.492;11.372;2022-07-29T02:24:20;28.60;62.00
18085;DHT22;9169;44.492;11.372;2022-07-29T02:26:47;28.60;61.70
18085;DHT22;9169;44.492;11.372;2022-07-29T02:29:15;28.50;62.10
18085;DHT22;9169;44.492;11.372;2022-07-29T02:31:43;28.40;62.10
18085;DHT22;9169;44.492;11.372;2022-07-29T02:34:12;28.40;62.80
18085;DHT22;9169;44.492;11.372;2022-07-29T02:36:40;28.30;63.10
18085;DHT22;9169;44.492;11.372;2022-07-29T02:39:08;28.30;63.30
18085;DHT22;9169;44.492;11.372;2022-07-29T02:41:38;28.30;62.80
18085;DHT22;9169;44.492;11.372;2022-07-29T02:44:12;28.20;63.00
18085;DHT22;9169;44.492;11.372;2022-07-29T02:46:41;28.30;62.80
18085;DHT22;9169;44.492;11.372;2022-07-29T02:49:10;28.30;62.40
18085;DHT22;9169;44.492;11.372;2022-07-29T02:51:42;28.30;62.40
18085;DHT22;9169;44.492;11.372;2022-07-29T02:54:10;28.40;62.30
18085;DHT22;9169;44.492;11.372;2022-07-29T02:56:37;28.30;62.20
18085;DHT22;9169;44.492;11.372;2022-07-29T02:59:06;28.30;62.10
18085;DHT22;9169;44.492;11.372;2022-07-29T03:01:34;28.30;61.70
18085;DHT22;9169;44.492;11.372;2022-07-29T03:04:03;28.30;61.40
18085;DHT22;9169;44.492;11.372;2022-07-29T03:06:30;28.40;61.10
18085;DHT22;9169;44.492;11.372;2022-07-29T03:09:01;28.40;61.30
18085;DHT22;9169;44.492;11.372;2022-07-29T03:11:28;28.40;61.20
18085;DHT22;9169;44.492;11.372;2022-07-29T03:13:55;28.50;60.90
18085;DHT22;9169;44.492;11.372;2022-07-29T03:16:22;28.50;60.70
18085;DHT22;9169;44.492;11.372;2022-07-29T03:18:49;28.50;60.60
18085;DHT22;9169;44.492;11.372;2022-07-29T03:21:16;28.60;60.50
18085;DHT22;9169;44.492;11.372;2022-07-29T03:23:43;28.60;60.60
18085;DHT22;9169;44.492;11.372;2022-07-29T03:26:11;28.60;60.40
18085;DHT22;9169;44.492;11.372;2022-07-29T03:28:38;28.60;60.10
18085;DHT22;9169;44.492;11.372;2022-07-29T03:31:05;28.60;60.10
18085;DHT22;9169;44.492;11.372;2022-07-29T03:33:32;28.60;60.00
18085;DHT22;9169;44.492;11.372;2022-07-29T03:35:58;28.60;60.10
18085;DHT22;9169;44.492;11.372;2022-07-29T03:38:27;28.60;59.90
18085;DHT22;9169;44.492;11.372;2022-07-29T03:40:56;28.60;59.90
18085;DHT22;9169;44.492;11.372;2022-07-29T03:43:28;28.60;59.90
18085;DHT22;9169;44.492;11.372;2022-07-29T03:45:57;28.60;60.10
18085;DHT22;9169;44.492;11.372;2022-07-29T03:48:24;28.60;60.80
18085;DHT22;9169;44.492;11.372;2022-07-29T03:50:52;28.60;60.60
18085;DHT22;9169;44.492;11.372;2022-07-29T03:53:19;28.60;60.40
18085;DHT22;9169;44.492;11.372;2022-07-29T03:55:46;28.60;60.50
18085;DHT22;9169;44.492;11.372;2022-07-29T03:58:14;28.60;61.30
18085;DHT22;9169;44.492;11.372;2022-07-29T04:00:43;28.60;61.20
18085;DHT22;9169;44.492;11.372;2022-07-29T04:03:10;28.50;61.00
18085;DHT22;9169;44.492;11.372;2022-07-29T04:05:36;28.40;60.90
18085;DHT22;9169;44.492;11.372;2022-07-29T04:08:03;28.40;61.10
18085;DHT22;9169;44.492;11.372;2022-07-29T04:10:30;28.40;60.60
18085;DHT22;9169;44.492;11.372;2022-07-29T04:12:57;28.90;60.70
18085;DHT22;9169;44.492;11.372;2022-07-29T04:15:24;28.50;61.00
18085;DHT22;9169;44.492;11.372;2022-07-29T04:17:55;28.40;61.70
18085;DHT22;9169;44.492;11.372;2022-07-29T04:20:22;28.40;61.50
18085;DHT22;9169;44.492;11.372;2022-07-29T04:22:48;28.40;61.00
18085;DHT22;9169;44.492;11.372;2022-07-29T04:25:15;28.50;61.10
18085;DHT22;9169;44.492;11.372;2022-07-29T04:27:42;28.50;61.40
18085;DHT22;9169;44.492;11.372;2022-07-29T04:30:23;28.50;60.60
18085;DHT22;9169;44.492;11.372;2022-07-29T04:32:49;28.60;60.70
18085;DHT22;9169;44.492;11.372;2022-07-29T04:35:18;28.60;60.80
18085;DHT22;9169;44.492;11.372;2022-07-29T04:37:44;28.60;60.60
18085;DHT22;9169;44.492;11.372;2022-07-29T04:40:11;28.60;60.90
18085;DHT22;9169;44.492;11.372;2022-07-29T04:42:38;28.60;60.60
18085;DHT22;9169;44.492;11.372;2022-07-29T04:45:05;28.60;60.50
18085;DHT22;9169;44.492;11.372;2022-07-29T04:47:32;28.60;60.40
18085;DHT22;9169;44.492;11.372;2022-07-29T04:49:59;28.60;60.40
18085;DHT22;9169;44.492;11.372;2022-07-29T04:52:27;28.60;60.60
18085;DHT22;9169;44.492;11.372;2022-07-29T04:54:54;28.60;60.40
18085;DHT22;9169;44.492;11.372;2022-07-29T04:57:20;28.60;60.80
18085;DHT22;9169;44.492;11.372;2022-07-29T04:59:47;28.50;60.80
18085;DHT22;9169;44.492;11.372;2022-07-29T05:02:14;28.50;61.00
18085;DHT22;9169;44.492;11.372;2022-07-29T05:04:41;28.50;60.90
18085;DHT22;9169;44.492;11.372;2022-07-29T05:07:08;28.50;61.70
18085;DHT22;9169;44.492;11.372;2022-07-29T05:09:36;28.40;61.60
18085;DHT22;9169;44.492;11.372;2022-07-29T05:12:03;28.50;61.20
18085;DHT22;9169;44.492;11.372;2022-07-29T05:14:30;28.50;61.30
18085;DHT22;9169;44.492;11.372;2022-07-29T05:16:56;27.80;60.60
18085;DHT22;9169;44.492;11.372;2022-07-29T05:19:23;28.50;61.20
18085;DHT22;9169;44.492;11.372;2022-07-29T05:21:50;28.50;61.00
18085;DHT22;9169;44.492;11.372;2022-07-29T05:24:17;28.60;60.80
18085;DHT22;9169;44.492;11.372;2022-07-29T05:26:45;28.70;61.40
18085;DHT22;9169;44.492;11.372;2022-07-29T05:29:11;28.80;61.20
18085;DHT22;9169;44.492;11.372;2022-07-29T05:31:38;28.80;61.10
18085;DHT22;9169;44.492;11.372;2022-07-29T05:34:05;28.90;60.80
18085;DHT22;9169;44.492;11.372;2022-07-29T05:36:32;29.00;60.90
18085;DHT22;9169;44.492;11.372;2022-07-29T05:38:58;29.00;60.90
18085;DHT22;9169;44.492;11.372;2022-07-29T05:41:25;29.10;60.50
18085;DHT22;9169;44.492;11.372;2022-07-29T05:43:53;29.10;60.40
18085;DHT22;9169;44.492;11.372;2022-07-29T05:46:20;29.10;60.00
18085;DHT22;9169;44.492;11.372;2022-07-29T05:48:47;29.20;60.10
18085;DHT22;9169;44.492;11.372;2022-07-29T05:51:14;29.40;60.20
18085;DHT22;9169;44.492;11.372;2022-07-29T05:53:40;29.30;60.00
18085;DHT22;9169;44.492;11.372;2022-07-29T05:56:07;29.30;60.60
18085;DHT22;9169;44.492;11.372;2022-07-29T05:58:34;29.30;60.50
18085;DHT22;9169;44.492;11.372;2022-07-29T06:01:03;29.30;60.20
18085;DHT22;9169;44.492;11.372;2022-07-29T06:03:29;29.40;60.70
18085;DHT22;9169;44.492;11.372;2022-07-29T06:05:56;29.30;60.50
18085;DHT22;9169;44.492;11.372;2022-07-29T06:08:23;29.30;60.20
18085;DHT22;9169;44.492;11.372;2022-07-29T06:10:50;29.40;60.10
18085;DHT22;9169;44.492;11.372;2022-07-29T06:13:17;29.40;60.70
18085;DHT22;9169;44.492;11.372;2022-07-29T06:15:43;29.40;61.10
18085;DHT22;9169;44.492;11.372;2022-07-29T06:18:13;29.40;60.10
18085;DHT22;9169;44.492;11.372;2022-07-29T06:20:40;29.50;60.00
18085;DHT22;9169;44.492;11.372;2022-07-29T06:23:06;29.50;59.90
18085;DHT22;9169;44.492;11.372;2022-07-29T06:25:35;29.60;59.90
18085;DHT22;9169;44.492;11.372;2022-07-29T06:28:02;29.70;59.90
18085;DHT22;9169;44.492;11.372;2022-07-29T06:30:29;29.70;59.80
18085;DHT22;9169;44.492;11.372;2022-07-29T06:32:55;29.80;59.60
18085;DHT22;9169;44.492;11.372;2022-07-29T06:35:23;29.90;59.70
18085;DHT22;9169;44.492;11.372;2022-07-29T06:37:50;29.90;59.70
18085;DHT22;9169;44.492;11.372;2022-07-29T06:40:17;29.90;59.60
18085;DHT22;9169;44.492;11.372;2022-07-29T06:43:01;29.90;59.50
18085;DHT22;9169;44.492;11.372;2022-07-29T06:45:28;30.00;59.60
18085;DHT22;9169;44.492;11.372;2022-07-29T06:47:54;29.90;60.40
18085;DHT22;9169;44.492;11.372;2022-07-29T06:50:21;29.80;59.90
18085;DHT22;9169;44.492;11.372;2022-07-29T06:52:49;30.00;60.00
18085;DHT22;9169;44.492;11.372;2022-07-29T06:55:16;30.00;59.90
18085;DHT22;9169;44.492;11.372;2022-07-29T06:57:44;29.80;59.70
18085;DHT22;9169;44.492;11.372;2022-07-29T07:00:12;30.10;59.80
18085;DHT22;9169;44.492;11.372;2022-07-29T07:02:39;30.10;59.70
18085;DHT22;9169;44.492;11.372;2022-07-29T07:05:06;30.10;59.70
18085;DHT22;9169;44.492;11.372;2022-07-29T07:07:33;30.10;59.60
18085;DHT22;9169;44.492;11.372;2022-07-29T07:10:01;30.20;59.60
18085;DHT22;9169;44.492;11.372;2022-07-29T07:12:28;30.30;59.60
18085;DHT22;9169;44.492;11.372;2022-07-29T07:14:55;30.60;60.00
18085;DHT22;9169;44.492;11.372;2022-07-29T07:17:21;30.30;60.10
18085;DHT22;9169;44.492;11.372;2022-07-29T07:19:48;30.20;59.90
18085;DHT22;9169;44.492;11.372;2022-07-29T07:22:15;30.20;59.90
18085;DHT22;9169;44.492;11.372;2022-07-29T07:24:42;30.30;59.80
18085;DHT22;9169;44.492;11.372;2022-07-29T07:27:10;30.30;60.10
18085;DHT22;9169;44.492;11.372;2022-07-29T07:29:37;30.30;59.80
18085;DHT22;9169;44.492;11.372;2022-07-29T07:32:06;30.40;59.90
18085;DHT22;9169;44.492;11.372;2022-07-29T07:34:33;30.40;59.90
18085;DHT22;9169;44.492;11.372;2022-07-29T07:37:00;30.40;59.70
18085;DHT22;9169;44.492;11.372;2022-07-29T07:39:27;30.40;59.70
18085;DHT22;9169;44.492;11.372;2022-07-29T07:41:53;30.50;59.70
18085;DHT22;9169;44.492;11.372;2022-07-29T07:44:21;30.50;59.70
18085;DHT22;9169;44.492;11.372;2022-07-29T07:46:48;30.60;59.70
18085;DHT22;9169;44.492;11.372;2022-07-29T07:49:15;30.60;60.10
18085;DHT22;9169;44.492;11.372;2022-07-29T07:51:42;30.60;59.70
18085;DHT22;9169;44.492;11.372;2022-07-29T07:54:09;30.60;59.70
18085;DHT22;9169;44.492;11.372;2022-07-29T07:56:36;30.60;59.60
18085;DHT22;9169;44.492;11.372;2022-07-29T07:59:02;30.70;59.90
18085;DHT22;9169;44.492;11.372;2022-07-29T08:01:31;30.70;59.80
18085;DHT22;9169;44.492;11.372;2022-07-29T08:03:57;30.80;59.60
18085;DHT22;9169;44.492;11.372;2022-07-29T08:06:24;30.90;59.70
18085;DHT22;9169;44.492;11.372;2022-07-29T08:08:51;30.90;59.60
18085;DHT22;9169;44.492;11.372;2022-07-29T08:11:18;30.90;59.70
18085;DHT22;9169;44.492;11.372;2022-07-29T08:13:46;31.00;59.80
18085;DHT22;9169;44.492;11.372;2022-07-29T08:16:13;31.00;60.00
18085;DHT22;9169;44.492;11.372;2022-07-29T08:18:42;31.00;60.50
18085;DHT22;9169;44.492;11.372;2022-07-29T08:21:09;31.00;59.90
18085;DHT22;9169;44.492;11.372;2022-07-29T08:23:36;31.10;59.80
18085;DHT22;9169;44.492;11.372;2022-07-29T08:26:05;31.10;59.70
18085;DHT22;9169;44.492;11.372;2022-07-29T08:28:35;31.10;59.60
18085;DHT22;9169;44.492;11.372;2022-07-29T08:31:02;31.20;59.50
18085;DHT22;9169;44.492;11.372;2022-07-29T08:33:29;31.30;59.70
18085;DHT22;9169;44.492;11.372;2022-07-29T08:35:57;31.30;59.60
18085;DHT22;9169;44.492;11.372;2022-07-29T08:38:24;31.40;59.50
18085;DHT22;9169;44.492;11.372;2022-07-29T08:40:52;31.50;59.50
18085;DHT22;9169;44.492;11.372;2022-07-29T08:43:19;31.50;59.50
18085;DHT22;9169;44.492;11.372;2022-07-29T08:45:46;31.60;59.40
18085;DHT22;9169;44.492;11.372;2022-07-29T08:48:14;31.60;59.40
18085;DHT22;9169;44.492;11.372;2022-07-29T08:50:42;31.70;59.60
18085;DHT22;9169;44.492;11.372;2022-07-29T08:53:11;31.70;59.50
18085;DHT22;9169;44.492;11.372;2022-07-29T08:55:38;31.80;59.40
18085;DHT22;9169;44.492;11.372;2022-07-29T08:58:06;31.80;59.40
18085;DHT22;9169;44.492;11.372;2022-07-29T09:00:33;31.90;59.40
18085;DHT22;9169;44.492;11.372;2022-07-29T09:03:01;31.90;59.40
18085;DHT22;9169;44.492;11.372;2022-07-29T09:05:28;32.00;59.40
18085;DHT22;9169;44.492;11.372;2022-07-29T09:07:56;32.20;59.50
18085;DHT22;9169;44.492;11.372;2022-07-29T09:10:25;32.20;59.20
18085;DHT22;9169;44.492;11.372;2022-07-29T09:12:52;32.30;59.40
18085;DHT22;9169;44.492;11.372;2022-07-29T09:15:18;32.30;59.40
18085;DHT22;9169;44.492;11.372;2022-07-29T09:17:46;32.40;59.30
18085;DHT22;9169;44.492;11.372;2022-07-29T09:20:14;32.30;59.20
18085;DHT22;9169;44.492;11.372;2022-07-29T09:22:41;32.60;59.30
18085;DHT22;9169;44.492;11.372;2022-07-29T09:25:08;32.70;59.20
18085;DHT22;9169;44.492;11.372;2022-07-29T09:27:36;32.80;59.30
18085;DHT22;9169;44.492;11.372;2022-07-29T09:30:04;32.90;59.00
18085;DHT22;9169;44.492;11.372;2022-07-29T09:32:31;33.00;59.00
18085;DHT22;9169;44.492;11.372;2022-07-29T09:37:39;33.30;59.00
18085;DHT22;9169;44.492;11.372;2022-07-29T09:40:10;33.50;59.00
18085;DHT22;9169;44.492;11.372;2022-07-29T09:42:39;33.70;59.00
18085;DHT22;9169;44.492;11.372;2022-07-29T09:45:06;33.70;59.00
18085;DHT22;9169;44.492;11.372;2022-07-29T09:47:42;33.80;58.90
18085;DHT22;9169;44.492;11.372;2022-07-29T09:50:12;34.00;59.00
18085;DHT22;9169;44.492;11.372;2022-07-29T09:52:45;34.10;59.00
18085;DHT22;9169;44.492;11.372;2022-07-29T09:55:13;34.40;59.00
18085;DHT22;9169;44.492;11.372;2022-07-29T09:57:41;34.60;59.00
18085;DHT22;9169;44.492;11.372;2022-07-29T10:00:09;34.80;58.70
18085;DHT22;9169;44.492;11.372;2022-07-29T10:02:36;34.90;58.70
18085;DHT22;9169;44.492;11.372;2022-07-29T10:05:04;35.20;58.80
18085;DHT22;9169;44.492;11.372;2022-07-29T10:07:42;35.30;58.70
18085;DHT22;9169;44.492;11.372;2022-07-29T10:10:09;35.50;58.50
18085;DHT22;9169;44.492;11.372;2022-07-29T10:12:49;35.60;58.60
18085;DHT22;9169;44.492;11.372;2022-07-29T10:15:16;35.90;58.60
18085;DHT22;9169;44.492;11.372;2022-07-29T10:17:43;36.00;58.30
18085;DHT22;9169;44.492;11.372;2022-07-29T10:20:10;36.30;58.30
18085;DHT22;9169;44.492;11.372;2022-07-29T10:22:37;36.40;58.20
18085;DHT22;9169;44.492;11.372;2022-07-29T10:25:05;36.50;58.10
18085;DHT22;9169;44.492;11.372;2022-07-29T10:27:32;36.80;58.20
18085;DHT22;9169;44.492;11.372;2022-07-29T10:30:00;36.90;57.90
18085;DHT22;9169;44.492;11.372;2022-07-29T10:32:39;37.10;58.00
18085;DHT22;9169;44.492;11.372;2022-07-29T10:35:19;37.30;57.80
18085;DHT22;9169;44.492;11.372;2022-07-29T10:38:02;37.50;57.50
18085;DHT22;9169;44.492;11.372;2022-07-29T10:40:35;37.70;57.40
18085;DHT22;9169;44.492;11.372;2022-07-29T10:43:24;38.10;57.40
18085;DHT22;9169;44.492;11.372;2022-07-29T10:45:56;38.70;57.10
18085;DHT22;9169;44.492;11.372;2022-07-29T10:48:23;39.60;56.90
18085;DHT22;9169;44.492;11.372;2022-07-29T10:50:54;40.90;56.40
18085;DHT22;9169;44.492;11.372;2022-07-29T10:53:22;42.00;54.30
18085;DHT22;9169;44.492;11.372;2022-07-29T10:55:49;43.00;53.40
18085;DHT22;9169;44.492;11.372;2022-07-29T10:58:17;43.60;53.00
18085;DHT22;9169;44.492;11.372;2022-07-29T11:00:44;44.80;52.40
18085;DHT22;9169;44.492;11.372;2022-07-29T11:05:56;46.50;50.80
18085;DHT22;9169;44.492;11.372;2022-07-29T11:08:24;47.50;50.80
18085;DHT22;9169;44.492;11.372;2022-07-29T11:10:51;48.40;50.40
18085;DHT22;9169;44.492;11.372;2022-07-29T11:16:00;49.80;51.80
18085;DHT22;9169;44.492;11.372;2022-07-29T11:18:27;49.90;54.50
18085;DHT22;9169;44.492;11.372;2022-07-29T11:20:55;51.00;41.70
18085;DHT22;9169;44.492;11.372;2022-07-29T11:23:24;50.50;44.10
18085;DHT22;9169;44.492;11.372;2022-07-29T11:28:38;50.40;45.00
18085;DHT22;9169;44.492;11.372;2022-07-29T11:31:06;51.20;24.80
18085;DHT22;9169;44.492;11.372;2022-07-29T11:33:34;50.90;25.80
18085;DHT22;9169;44.492;11.372;2022-07-29T11:36:10;51.10;26.10
18085;DHT22;9169;44.492;11.372;2022-07-29T11:38:37;51.10;23.90
18085;DHT22;9169;44.492;11.372;2022-07-29T11:41:19;50.50;24.40
18085;DHT22;9169;44.492;11.372;2022-07-29T11:43:46;50.20;25.20
18085;DHT22;9169;44.492;11.372;2022-07-29T11:46:14;50.20;25.70
18085;DHT22;9169;44.492;11.372;2022-07-29T11:48:41;50.60;25.90
18085;DHT22;9169;44.492;11.372;2022-07-29T11:51:10;51.00;25.60
18085;DHT22;9169;44.492;11.372;2022-07-29T11:53:37;51.00;25.00
18085;DHT22;9169;44.492;11.372;2022-07-29T11:56:07;51.10;25.70
18085;DHT22;9169;44.492;11.372;2022-07-29T11:58:35;51.70;25.50
18085;DHT22;9169;44.492;11.372;2022-07-29T12:01:02;52.00;25.40
18085;DHT22;9169;44.492;11.372;2022-07-29T12:03:30;52.30;25.40
18085;DHT22;9169;44.492;11.372;2022-07-29T12:05:57;52.10;24.70
18085;DHT22;9169;44.492;11.372;2022-07-29T12:08:25;52.40;24.80
18085;DHT22;9169;44.492;11.372;2022-07-29T12:10:53;52.60;25.00
18085;DHT22;9169;44.492;11.372;2022-07-29T12:13:21;52.60;25.00
18085;DHT22;9169;44.492;11.372;2022-07-29T12:15:54;52.90;25.20
18085;DHT22;9169;44.492;11.372;2022-07-29T12:18:22;53.10;25.10
18085;DHT22;9169;44.492;11.372;2022-07-29T12:20:49;53.40;24.90
18085;DHT22;9169;44.492;11.372;2022-07-29T12:23:22;53.70;25.20
18085;DHT22;9169;44.492;11.372;2022-07-29T12:25:51;53.90;24.90
18085;DHT22;9169;44.492;11.372;2022-07-29T12:28:17;53.80;23.90
18085;DHT22;9169;44.492;11.372;2022-07-29T12:30:47;53.50;24.40
18085;DHT22;9169;44.492;11.372;2022-07-29T12:33:16;53.20;24.50
18085;DHT22;9169;44.492;11.372;2022-07-29T12:35:44;53.30;24.60
18085;DHT22;9169;44.492;11.372;2022-07-29T12:38:11;53.50;24.50
18085;DHT22;9169;44.492;11.372;2022-07-29T12:40:38;53.20;24.50
18085;DHT22;9169;44.492;11.372;2022-07-29T12:43:08;53.00;24.80
18085;DHT22;9169;44.492;11.372;2022-07-29T12:45:36;52.50;25.00
18085;DHT22;9169;44.492;11.372;2022-07-29T12:48:03;51.50;25.10
18085;DHT22;9169;44.492;11.372;2022-07-29T12:50:29;50.20;25.20
18085;DHT22;9169;44.492;11.372;2022-07-29T12:53:07;49.00;25.90
18085;DHT22;9169;44.492;11.372;2022-07-29T12:55:38;47.60;26.50
18085;DHT22;9169;44.492;11.372;2022-07-29T12:58:05;46.40;27.00
18085;DHT22;9169;44.492;11.372;2022-07-29T13:00:33;45.40;27.50
18085;DHT22;9169;44.492;11.372;2022-07-29T13:03:00;44.60;27.30
18085;DHT22;9169;44.492;11.372;2022-07-29T13:05:38;43.80;28.00
18085;DHT22;9169;44.492;11.372;2022-07-29T13:08:15;43.30;28.30
18085;DHT22;9169;44.492;11.372;2022-07-29T13:10:43;42.80;28.70
18085;DHT22;9169;44.492;11.372;2022-07-29T13:13:11;42.40;28.60
18085;DHT22;9169;44.492;11.372;2022-07-29T13:15:40;41.90;28.80
18085;DHT22;9169;44.492;11.372;2022-07-29T13:20:49;41.30;29.30
18085;DHT22;9169;44.492;11.372;2022-07-29T13:23:16;41.00;29.30
18085;DHT22;9169;44.492;11.372;2022-07-29T13:25:43;40.80;29.50
18085;DHT22;9169;44.492;11.372;2022-07-29T13:28:10;40.60;29.60
18085;DHT22;9169;44.492;11.372;2022-07-29T13:30:37;40.50;29.70
18085;DHT22;9169;44.492;11.372;2022-07-29T13:33:05;40.40;29.90
18085;DHT22;9169;44.492;11.372;2022-07-29T13:35:32;40.90;29.90
18085;DHT22;9169;44.492;11.372;2022-07-29T13:37:58;41.30;29.10
18085;DHT22;9169;44.492;11.372;2022-07-29T13:40:25;41.60;29.30
18085;DHT22;9169;44.492;11.372;2022-07-29T13:42:54;41.80;29.20
18085;DHT22;9169;44.492;11.372;2022-07-29T13:45:21;41.80;29.10
18085;DHT22;9169;44.492;11.372;2022-07-29T13:47:48;41.70;29.40
18085;DHT22;9169;44.492;11.372;2022-07-29T13:50:16;41.50;28.50
18085;DHT22;9169;44.492;11.372;2022-07-29T13:52:43;41.30;28.90
18085;DHT22;9169;44.492;11.372;2022-07-29T13:55:09;41.20;29.00
18085;DHT22;9169;44.492;11.372;2022-07-29T13:57:36;41.20;29.00
18085;DHT22;9169;44.492;11.372;2022-07-29T14:00:03;41.00;28.90
18085;DHT22;9169;44.492;11.372;2022-07-29T14:02:30;40.80;29.20
18085;DHT22;9169;44.492;11.372;2022-07-29T14:04:58;40.70;29.40
18085;DHT22;9169;44.492;11.372;2022-07-29T14:07:26;40.50;29.20
18085;DHT22;9169;44.492;11.372;2022-07-29T14:09:53;40.30;29.10
18085;DHT22;9169;44.492;11.372;2022-07-29T14:12:19;40.00;29.20
18085;DHT22;9169;44.492;11.372;2022-07-29T14:14:46;39.90;29.50
18085;DHT22;9169;44.492;11.372;2022-07-29T14:17:13;39.90;29.80
18085;DHT22;9169;44.492;11.372;2022-07-29T14:19:40;39.80;29.90
18085;DHT22;9169;44.492;11.372;2022-07-29T14:22:07;39.80;30.00
18085;DHT22;9169;44.492;11.372;2022-07-29T14:24:36;39.70;30.00
18085;DHT22;9169;44.492;11.372;2022-07-29T14:27:03;39.60;30.00
18085;DHT22;9169;44.492;11.372;2022-07-29T14:29:30;39.40;30.00
18085;DHT22;9169;44.492;11.372;2022-07-29T14:31:57;39.20;30.20
18085;DHT22;9169;44.492;11.372;2022-07-29T14:34:24;39.00;30.40
18085;DHT22;9169;44.492;11.372;2022-07-29T14:36:50;38.80;30.60
18085;DHT22;9169;44.492;11.372;2022-07-29T14:39:20;38.60;30.80
18085;DHT22;9169;44.492;11.372;2022-07-29T14:41:49;38.50;31.00
18085;DHT22;9169;44.492;11.372;2022-07-29T14:44:16;38.40;31.40
18085;DHT22;9169;44.492;11.372;2022-07-29T14:46:43;38.10;31.50
18085;DHT22;9169;44.492;11.372;2022-07-29T14:49:10;38.00;31.70
18085;DHT22;9169;44.492;11.372;2022-07-29T14:51:37;37.80;31.70
18085;DHT22;9169;44.492;11.372;2022-07-29T14:54:04;37.70;31.70
18085;DHT22;9169;44.492;11.372;2022-07-29T14:56:31;37.60;31.70
18085;DHT22;9169;44.492;11.372;2022-07-29T14:59:00;37.60;31.80
18085;DHT22;9169;44.492;11.372;2022-07-29T15:01:26;37.50;31.80
18085;DHT22;9169;44.492;11.372;2022-07-29T15:03:54;37.40;31.70
18085;DHT22;9169;44.492;11.372;2022-07-29T15:06:21;37.30;31.80
18085;DHT22;9169;44.492;11.372;2022-07-29T15:08:47;37.20;31.80
18085;DHT22;9169;44.492;11.372;2022-07-29T15:11:14;37.10;32.00
18085;DHT22;9169;44.492;11.372;2022-07-29T15:13:41;37.10;32.00
18085;DHT22;9169;44.492;11.372;2022-07-29T15:16:09;37.10;32.10
18085;DHT22;9169;44.492;11.372;2022-07-29T15:18:37;37.00;32.10
18085;DHT22;9169;44.492;11.372;2022-07-29T15:21:03;36.80;32.00
18085;DHT22;9169;44.492;11.372;2022-07-29T15:23:32;37.00;32.10
18085;DHT22;9169;44.492;11.372;2022-07-29T15:25:59;37.00;32.60
18085;DHT22;9169;44.492;11.372;2022-07-29T15:28:25;36.90;33.50
18085;DHT22;9169;44.492;11.372;2022-07-29T15:30:52;36.70;33.20
18085;DHT22;9169;44.492;11.372;2022-07-29T15:33:21;36.60;33.30
18085;DHT22;9169;44.492;11.372;2022-07-29T15:35:47;36.50;33.20
18085;DHT22;9169;44.492;11.372;2022-07-29T15:38:15;36.50;33.00
18085;DHT22;9169;44.492;11.372;2022-07-29T15:40:42;36.50;33.00
18085;DHT22;9169;44.492;11.372;2022-07-29T15:43:09;36.50;33.00
18085;DHT22;9169;44.492;11.372;2022-07-29T15:45:37;36.50;33.00
18085;DHT22;9169;44.492;11.372;2022-07-29T15:48:04;36.50;32.90
18085;DHT22;9169;44.492;11.372;2022-07-29T15:50:32;36.50;32.90